Urbana, Illinois
Current Conditions -  °F | °C
As of 9:53 PM on Saturday 22 Nov 2014 (Local Time) from KCMI Reporting Station
Light Rain Light Rain  
Wind Chill: 50°   Ceiling: 8000
Heat Index: 50°   Visibility: 6mi
Dew Point: 47°   Wind: 16mph
Humidity: 89%   Direction: 180°S
Pressure: 29.93"   Gusts: NA
Location:  40.12°N, 88.2°W
Report Text: KCMI 230353Z 18014KT 6SM -RA BR OVC080 10/08 A2993 RMK AO2 SLP136 P0002 T01000083 $
Loading
Personal Weather Stations






























Interactive Weather Map New forecast layout! Learn more

10-Day Weather Forecast

Advertisements
Track Severe Weather on mobile